< < Back
Terminal Aerodrome Forecast


Current Version              Previous Versions:   1  2  3  4  5  6  7  8  9  

Terminal Aerodrome Forecast

778
FTUS42 KCHS 302332
TAFCHS
TAF
KCHS 302332Z 3100/3124 36007KT P6SM FEW250
     FM311200 02007KT P6SM SCT250=

Latest METAR

617
SAUS80 KWBC 010400 RRL
MTRCHS
METAR KCHS 010356Z 00000KT 10SM BKN160 04/M02 A3036 RMK AO2 SLP279
T00441022 $


USA.gov is the U.S. government's official web portal to all federal, state and local government web resources and services.